createdAt,value
2022-10-15T00:00:43.446Z,19.09
2022-10-15T00:03:10.220Z,19.09
2022-10-15T00:05:38.416Z,19.08
2022-10-15T00:08:05.927Z,19.07
2022-10-15T00:10:33.087Z,19.08
2022-10-15T00:13:00.114Z,19.10
2022-10-15T00:15:26.977Z,19.10
2022-10-15T00:17:53.733Z,19.10
2022-10-15T00:20:20.410Z,19.11
2022-10-15T00:22:47.153Z,19.10
2022-10-15T00:25:13.836Z,19.13
2022-10-15T00:27:40.578Z,19.10
2022-10-15T00:30:07.787Z,19.09
2022-10-15T00:32:34.643Z,19.11
2022-10-15T00:35:05.216Z,19.22
2022-10-15T00:37:32.011Z,19.19
2022-10-15T00:39:58.653Z,19.14
2022-10-15T00:42:25.667Z,19.13
2022-10-15T00:44:55.654Z,19.10
2022-10-15T00:47:48.997Z,19.12
2022-10-15T00:50:24.173Z,19.11
2022-10-15T00:53:01.893Z,19.10
2022-10-15T00:55:37.519Z,19.09
2022-10-15T00:58:27.833Z,19.10
2022-10-15T01:00:55.984Z,19.11
2022-10-15T01:03:23.167Z,19.09
2022-10-15T01:05:51.583Z,19.10
2022-10-15T01:08:18.465Z,19.11
2022-10-15T01:10:57.460Z,19.11
2022-10-15T01:13:35.621Z,19.12
2022-10-15T01:16:20.544Z,19.11
2022-10-15T01:18:59.515Z,19.12
2022-10-15T01:21:35.695Z,19.10
2022-10-15T01:24:30.856Z,19.12
2022-10-15T01:27:04.278Z,19.11
2022-10-15T01:29:38.515Z,19.12
2022-10-15T01:32:10.783Z,19.15
2022-10-15T01:35:05.171Z,19.15
2022-10-15T01:37:52.487Z,19.13
2022-10-15T01:40:46.940Z,19.13
2022-10-15T01:43:18.146Z,19.12
2022-10-15T01:46:08.864Z,19.12
2022-10-15T01:48:43.194Z,19.12
2022-10-15T01:51:12.212Z,19.14
2022-10-15T01:53:40.164Z,19.11
2022-10-15T01:56:10.318Z,19.09
2022-10-15T01:58:47.300Z,19.09
2022-10-15T02:01:14.419Z,19.10
2022-10-15T02:03:59.416Z,19.11
2022-10-15T02:06:37.503Z,19.11
2022-10-15T02:09:12.472Z,19.11
2022-10-15T02:12:41.733Z,19.13
2022-10-15T02:15:18.164Z,19.11
2022-10-15T02:18:02.587Z,19.10
2022-10-15T02:20:35.568Z,19.10
2022-10-15T02:23:30.278Z,19.08
2022-10-15T02:26:01.834Z,19.08
2022-10-15T02:28:29.500Z,19.06
2022-10-15T02:30:56.952Z,19.05
2022-10-15T02:33:25.179Z,19.06
2022-10-15T02:35:52.497Z,19.09
2022-10-15T02:38:21.223Z,19.07
2022-10-15T02:40:48.832Z,19.09
2022-10-15T02:43:20.217Z,19.06
2022-10-15T02:45:48.012Z,19.06
2022-10-15T02:48:16.291Z,19.07
2022-10-15T02:50:43.312Z,19.05
2022-10-15T02:53:13.244Z,19.06
2022-10-15T02:55:42.251Z,19.06
2022-10-15T02:58:09.072Z,19.06
2022-10-15T03:00:35.805Z,19.05
2022-10-15T03:03:02.636Z,19.06
2022-10-15T03:05:29.693Z,19.07
2022-10-15T03:07:57.356Z,19.06
2022-10-15T03:10:24.069Z,19.05
2022-10-15T03:12:50.842Z,19.06
2022-10-15T03:15:17.986Z,19.05
2022-10-15T03:17:46.215Z,19.05
2022-10-15T03:20:15.919Z,19.05
2022-10-15T03:22:43.263Z,19.04
2022-10-15T03:25:10.515Z,19.03
2022-10-15T03:27:38.043Z,19.02
2022-10-15T03:30:13.130Z,19.03
2022-10-15T03:32:41.406Z,19.02
2022-10-15T03:35:08.417Z,19.02
2022-10-15T03:37:35.659Z,19.02
2022-10-15T03:40:03.262Z,19.01
2022-10-15T03:42:30.067Z,19.01
2022-10-15T03:44:56.996Z,19.00
2022-10-15T03:47:23.734Z,18.99
2022-10-15T03:49:50.468Z,18.99
2022-10-15T03:52:17.823Z,18.99
2022-10-15T03:54:46.681Z,18.99
2022-10-15T03:57:16.500Z,19.00
2022-10-15T03:59:47.713Z,19.00
2022-10-15T04:02:16.084Z,18.99
2022-10-15T04:04:43.175Z,18.98
2022-10-15T04:07:09.917Z,18.99
2022-10-15T04:09:37.251Z,18.99
2022-10-15T04:12:23.052Z,18.99
2022-10-15T04:14:50.332Z,18.99
2022-10-15T04:17:17.818Z,18.99
2022-10-15T04:19:45.164Z,18.98
2022-10-15T04:22:14.748Z,18.99
2022-10-15T04:24:47.029Z,18.99
2022-10-15T04:27:26.028Z,18.99
2022-10-15T04:29:58.354Z,18.99
2022-10-15T04:32:25.446Z,18.98
2022-10-15T04:34:52.292Z,18.98
2022-10-15T04:37:26.734Z,18.97
2022-10-15T04:39:53.528Z,18.98
2022-10-15T04:42:20.255Z,18.98
2022-10-15T04:44:47.949Z,18.97
2022-10-15T04:47:14.696Z,18.96
2022-10-15T04:49:48.961Z,18.96
2022-10-15T04:52:48.620Z,18.97
2022-10-15T04:55:17.258Z,18.97
2022-10-15T04:57:43.908Z,18.96
2022-10-15T05:00:11.730Z,18.96
2022-10-15T05:02:57.175Z,18.96
2022-10-15T05:05:34.511Z,18.97
2022-10-15T05:08:04.907Z,18.95
2022-10-15T05:10:54.228Z,19.05
2022-10-15T05:13:21.131Z,19.00
2022-10-15T05:15:49.129Z,18.95
2022-10-15T05:18:15.862Z,18.95
2022-10-15T05:20:49.798Z,18.95
2022-10-15T05:23:19.124Z,18.94
2022-10-15T05:25:55.104Z,18.94
2022-10-15T05:28:28.479Z,18.91
2022-10-15T05:31:01.771Z,18.93
2022-10-15T05:33:28.980Z,18.92
2022-10-15T05:35:55.826Z,18.93
2022-10-15T05:38:23.940Z,18.95
2022-10-15T05:40:50.644Z,18.93
2022-10-15T05:43:20.880Z,18.95
2022-10-15T05:45:48.550Z,18.94
2022-10-15T05:48:15.796Z,18.93
2022-10-15T05:50:43.079Z,18.93
2022-10-15T05:53:14.523Z,18.91
2022-10-15T05:55:46.558Z,18.84
2022-10-15T05:58:13.251Z,18.75
2022-10-15T06:00:39.937Z,18.55
2022-10-15T06:03:06.668Z,18.45
2022-10-15T06:05:33.734Z,18.39
2022-10-15T06:08:00.494Z,18.26
2022-10-15T06:10:28.622Z,18.15
2022-10-15T06:12:55.606Z,18.06
2022-10-15T06:15:22.265Z,18.05
2022-10-15T06:17:53.164Z,18.08
2022-10-15T06:20:20.510Z,18.11
2022-10-15T06:22:47.209Z,18.11
2022-10-15T06:25:14.043Z,18.13
2022-10-15T06:27:40.949Z,18.10
2022-10-15T06:30:08.870Z,18.07
2022-10-15T06:32:39.416Z,18.16
2022-10-15T06:35:06.850Z,18.24
2022-10-15T06:37:35.946Z,18.32
2022-10-15T06:40:03.835Z,18.30
2022-10-15T06:42:30.484Z,18.26
2022-10-15T06:44:57.191Z,18.21
2022-10-15T06:47:24.246Z,18.22
2022-10-15T06:49:51.176Z,18.18
2022-10-15T06:52:17.884Z,18.19
2022-10-15T06:54:44.857Z,18.27
2022-10-15T06:57:13.712Z,18.14
2022-10-15T06:59:41.526Z,18.16
2022-10-15T07:02:14.263Z,18.17
2022-10-15T07:04:41.001Z,18.18
2022-10-15T07:07:07.640Z,18.22
2022-10-15T07:09:35.456Z,18.19
2022-10-15T07:12:02.770Z,18.14
2022-10-15T07:14:29.938Z,18.09
2022-10-15T07:16:56.894Z,18.09
2022-10-15T07:19:26.313Z,18.00
2022-10-15T07:21:53.097Z,17.94
2022-10-15T07:24:19.828Z,17.85
2022-10-15T07:26:49.802Z,17.89
2022-10-15T07:29:16.829Z,17.99
2022-10-15T07:31:46.913Z,18.10
2022-10-15T07:34:16.276Z,18.16
2022-10-15T07:36:42.906Z,18.06
2022-10-15T07:39:10.463Z,18.04
2022-10-15T07:41:37.184Z,18.10
2022-10-15T07:44:03.947Z,18.13
2022-10-15T07:46:30.871Z,18.05
2022-10-15T07:48:57.603Z,17.90
2022-10-15T07:51:24.212Z,18.06
2022-10-15T07:53:50.942Z,18.13
2022-10-15T07:56:17.679Z,18.09
2022-10-15T07:58:51.673Z,18.17
2022-10-15T08:01:20.267Z,18.17
2022-10-15T08:03:47.427Z,18.28
2022-10-15T08:06:14.527Z,18.41
2022-10-15T08:08:41.543Z,18.53
2022-10-15T08:11:16.136Z,18.64
2022-10-15T08:13:44.133Z,18.76
2022-10-15T08:16:12.454Z,18.80
2022-10-15T08:18:39.360Z,18.66
2022-10-15T08:21:07.872Z,18.61
2022-10-15T08:23:35.624Z,18.64
2022-10-15T08:26:03.062Z,18.67
2022-10-15T08:28:31.409Z,18.81
2022-10-15T08:31:02.768Z,18.89
2022-10-15T08:33:32.891Z,18.87
2022-10-15T08:35:59.645Z,19.05
2022-10-15T08:38:26.576Z,19.09
2022-10-15T08:40:55.638Z,19.17
2022-10-15T08:43:26.539Z,19.22
2022-10-15T08:45:57.257Z,19.11
2022-10-15T08:48:36.705Z,19.18
2022-10-15T08:51:08.968Z,19.26
2022-10-15T08:53:41.165Z,19.40
2022-10-15T08:56:30.577Z,19.29
2022-10-15T08:59:28.684Z,19.14
2022-10-15T09:02:04.152Z,19.02
2022-10-15T09:04:55.485Z,19.01
2022-10-15T09:07:22.513Z,19.09
2022-10-15T09:09:52.490Z,19.06
2022-10-15T09:12:22.674Z,19.15
2022-10-15T09:14:50.164Z,19.17
2022-10-15T09:17:25.975Z,19.34
2022-10-15T09:19:55.000Z,19.46
2022-10-15T09:22:30.512Z,19.59
2022-10-15T09:24:57.841Z,19.78
2022-10-15T09:27:36.092Z,19.78
2022-10-15T09:30:26.608Z,19.81
2022-10-15T09:33:12.335Z,20.16
2022-10-15T09:35:44.147Z,20.34
2022-10-15T09:38:14.280Z,20.25
2022-10-15T09:41:05.231Z,20.05
2022-10-15T09:43:36.028Z,19.93
2022-10-15T09:46:03.344Z,19.93
2022-10-15T09:48:42.137Z,19.80
2022-10-15T09:51:28.559Z,19.77
2022-10-15T09:54:12.820Z,19.84
2022-10-15T09:56:43.600Z,19.83
2022-10-15T09:59:19.522Z,19.85
2022-10-15T10:01:58.638Z,19.95
2022-10-15T10:04:31.241Z,19.97
2022-10-15T10:07:00.962Z,19.88
2022-10-15T10:09:34.856Z,19.85
2022-10-15T10:12:07.513Z,19.75
2022-10-15T10:14:37.477Z,19.63
2022-10-15T10:17:08.685Z,19.49
2022-10-15T10:19:35.534Z,19.53
2022-10-15T10:22:12.079Z,19.42
2022-10-15T10:24:38.850Z,19.30
2022-10-15T10:27:34.247Z,19.37
2022-10-15T10:30:02.335Z,19.48
2022-10-15T10:32:34.303Z,19.51
2022-10-15T10:35:02.978Z,19.64
2022-10-15T10:37:29.999Z,19.83
2022-10-15T10:39:59.113Z,19.94
2022-10-15T10:42:31.856Z,20.00
2022-10-15T10:45:35.671Z,19.98
2022-10-15T10:48:40.854Z,19.75
2022-10-15T10:51:27.163Z,19.60
2022-10-15T10:53:57.112Z,19.80
2022-10-15T10:56:42.430Z,19.84
2022-10-15T10:59:18.162Z,19.76
2022-10-15T11:01:47.639Z,19.84
2022-10-15T11:04:25.011Z,19.91
2022-10-15T11:06:51.825Z,19.94
2022-10-15T11:09:32.551Z,19.86
2022-10-15T11:12:39.540Z,20.05
2022-10-15T11:15:28.362Z,20.24
2022-10-15T11:18:02.711Z,20.34
2022-10-15T11:21:08.432Z,20.48
2022-10-15T11:23:45.964Z,20.53
2022-10-15T11:26:58.972Z,20.80
2022-10-15T11:29:42.150Z,20.84
2022-10-15T11:33:05.327Z,20.93
2022-10-15T11:35:54.577Z,20.84
2022-10-15T11:38:49.040Z,20.73
2022-10-15T11:41:41.705Z,20.82
2022-10-15T11:44:20.222Z,20.78
2022-10-15T11:46:58.158Z,20.44
2022-10-15T11:49:58.370Z,20.25
2022-10-15T11:52:58.048Z,20.42
2022-10-15T11:55:32.756Z,20.44
2022-10-15T11:58:02.340Z,20.47
2022-10-15T12:00:40.278Z,20.53
2022-10-15T12:03:29.276Z,20.48
2022-10-15T12:06:01.333Z,20.44
2022-10-15T12:08:35.103Z,20.34
2022-10-15T12:11:07.616Z,20.46
2022-10-15T12:13:41.131Z,20.39
2022-10-15T12:16:26.658Z,20.57
2022-10-15T12:19:05.241Z,20.89
2022-10-15T12:21:41.418Z,21.02
2022-10-15T12:24:44.470Z,21.00
2022-10-15T12:27:22.824Z,20.64
2022-10-15T12:29:50.865Z,20.33
2022-10-15T12:32:25.751Z,20.10
2022-10-15T12:34:56.315Z,20.13
2022-10-15T12:37:23.990Z,20.33
2022-10-15T12:40:23.133Z,20.32
2022-10-15T12:42:51.275Z,20.09
2022-10-15T12:45:24.659Z,20.10
2022-10-15T12:47:55.442Z,20.13
2022-10-15T12:50:26.837Z,19.89
2022-10-15T12:53:26.080Z,19.91
2022-10-15T12:56:18.003Z,19.98
2022-10-15T12:58:56.632Z,19.96
2022-10-15T13:01:23.447Z,20.12
2022-10-15T13:03:53.199Z,20.32
2022-10-15T13:06:22.711Z,20.58
2022-10-15T13:08:55.163Z,20.39
2022-10-15T13:11:29.126Z,20.30
2022-10-15T13:14:00.767Z,20.27
2022-10-15T13:16:27.981Z,20.35
2022-10-15T13:18:55.883Z,20.39
2022-10-15T13:21:23.579Z,20.25
2022-10-15T13:23:51.303Z,19.94
2022-10-15T13:26:19.858Z,20.00
2022-10-15T13:29:14.416Z,20.19
2022-10-15T13:31:44.925Z,20.30
2022-10-15T13:34:19.706Z,20.35
2022-10-15T13:36:47.207Z,20.46
2022-10-15T13:39:27.825Z,20.27
2022-10-15T13:42:24.122Z,20.16
2022-10-15T13:45:03.260Z,20.11
2022-10-15T13:47:38.132Z,19.97
2022-10-15T13:50:26.867Z,19.88
2022-10-15T13:53:00.848Z,19.76
2022-10-15T13:55:40.089Z,19.63
2022-10-15T13:58:24.871Z,19.57
2022-10-15T14:01:03.892Z,19.66
2022-10-15T14:03:32.560Z,19.72
2022-10-15T14:06:14.760Z,19.70
2022-10-15T14:08:41.472Z,19.67
2022-10-15T14:11:12.027Z,19.86
2022-10-15T14:13:58.425Z,20.14
2022-10-15T14:16:39.537Z,20.23
2022-10-15T14:19:06.693Z,20.21
2022-10-15T14:21:34.646Z,20.17
2022-10-15T14:24:06.763Z,19.97
2022-10-15T14:26:35.122Z,19.95
2022-10-15T14:29:02.110Z,20.10
2022-10-15T14:31:40.634Z,20.14
2022-10-15T14:34:36.181Z,19.97
2022-10-15T14:37:03.990Z,19.81
2022-10-15T14:39:34.731Z,19.81
2022-10-15T14:42:04.002Z,19.88
2022-10-15T14:44:45.176Z,20.03
2022-10-15T14:47:19.937Z,20.07
2022-10-15T14:49:46.934Z,20.03
2022-10-15T14:52:17.203Z,19.98
2022-10-15T14:55:13.081Z,19.97
2022-10-15T14:57:42.832Z,19.78
2022-10-15T15:00:27.239Z,19.74
2022-10-15T15:02:56.944Z,19.60
2022-10-15T15:05:28.126Z,19.53
2022-10-15T15:07:57.187Z,19.46
2022-10-15T15:10:25.772Z,19.28
2022-10-15T15:12:57.253Z,19.15
2022-10-15T15:15:25.988Z,19.03
2022-10-15T15:17:52.605Z,19.01
2022-10-15T15:20:20.479Z,18.97
2022-10-15T15:22:50.323Z,18.88
2022-10-15T15:25:19.803Z,18.92
2022-10-15T15:27:47.150Z,18.94
2022-10-15T15:30:21.811Z,18.97
2022-10-15T15:32:49.091Z,18.97
2022-10-15T15:35:30.691Z,18.91
2022-10-15T15:37:57.387Z,18.89
2022-10-15T15:40:24.030Z,18.90
2022-10-15T15:42:50.792Z,18.95
2022-10-15T15:45:23.792Z,18.98
2022-10-15T15:47:50.688Z,18.83
2022-10-15T15:50:18.566Z,18.69
2022-10-15T15:52:45.402Z,18.69
2022-10-15T15:55:12.976Z,18.66
2022-10-15T15:57:39.879Z,18.59
2022-10-15T16:00:07.964Z,18.58
2022-10-15T16:02:35.439Z,18.57
2022-10-15T16:05:02.563Z,18.63
2022-10-15T16:07:29.906Z,18.58
2022-10-15T16:09:57.102Z,18.61
2022-10-15T16:12:24.270Z,18.58
2022-10-15T16:14:52.341Z,18.57
2022-10-15T16:17:19.199Z,18.62
2022-10-15T16:19:45.846Z,18.68
2022-10-15T16:22:13.344Z,18.62
2022-10-15T16:24:40.024Z,18.59
2022-10-15T16:27:06.736Z,18.60
2022-10-15T16:29:33.406Z,18.64
2022-10-15T16:32:00.244Z,18.69
2022-10-15T16:34:26.932Z,18.66
2022-10-15T16:36:53.702Z,18.65
2022-10-15T16:39:20.380Z,18.66
2022-10-15T16:41:47.212Z,18.72
2022-10-15T16:44:13.891Z,18.75
2022-10-15T16:46:40.711Z,18.76
2022-10-15T16:49:07.366Z,18.76
2022-10-15T16:51:35.601Z,18.62
2022-10-15T16:54:04.291Z,18.57
2022-10-15T16:56:31.599Z,18.62
2022-10-15T16:58:58.357Z,18.66
2022-10-15T17:01:27.750Z,18.67
2022-10-15T17:03:54.518Z,18.66
2022-10-15T17:06:23.733Z,18.75
2022-10-15T17:08:52.566Z,18.86
2022-10-15T17:11:22.407Z,18.94
2022-10-15T17:13:50.863Z,19.02
2022-10-15T17:16:19.278Z,19.06
2022-10-15T17:18:46.538Z,19.12
2022-10-15T17:21:20.254Z,19.15
2022-10-15T17:23:47.323Z,19.19
2022-10-15T17:26:20.750Z,19.23
2022-10-15T17:28:49.212Z,19.25
2022-10-15T17:31:20.871Z,19.28
2022-10-15T17:33:48.556Z,19.32
2022-10-15T17:36:20.294Z,19.32
2022-10-15T17:38:47.193Z,19.35
2022-10-15T17:41:17.927Z,19.35
2022-10-15T17:43:45.305Z,19.40
2022-10-15T17:46:14.298Z,19.40
2022-10-15T17:48:41.330Z,19.43
2022-10-15T17:51:32.928Z,19.44
2022-10-15T17:54:02.277Z,19.46
2022-10-15T17:56:34.412Z,19.46
2022-10-15T17:59:03.179Z,19.48
2022-10-15T18:01:56.070Z,19.48
2022-10-15T18:04:19.887Z,19.51
2022-10-15T18:06:46.788Z,19.50
2022-10-15T18:09:25.308Z,19.51
2022-10-15T18:11:55.199Z,19.52
2022-10-15T18:14:22.130Z,19.52
2022-10-15T18:16:48.921Z,19.52
2022-10-15T18:19:15.795Z,19.54
2022-10-15T18:21:46.911Z,19.53
2022-10-15T18:24:19.248Z,19.55
2022-10-15T18:26:45.888Z,19.55
2022-10-15T18:29:12.613Z,19.55
2022-10-15T18:31:41.096Z,19.57
2022-10-15T18:34:07.854Z,19.56
2022-10-15T18:36:34.667Z,19.58
2022-10-15T18:39:01.391Z,19.58
2022-10-15T18:41:30.864Z,19.58
2022-10-15T18:44:20.840Z,19.58
2022-10-15T18:46:47.861Z,19.60
2022-10-15T18:49:16.798Z,19.59
2022-10-15T18:51:46.161Z,19.60
2022-10-15T18:54:13.528Z,19.60
2022-10-15T18:56:40.374Z,19.60
2022-10-15T18:59:07.187Z,19.62
2022-10-15T19:01:35.576Z,19.60
2022-10-15T19:04:07.511Z,19.61
2022-10-15T19:06:37.024Z,19.60
2022-10-15T19:09:06.340Z,19.62
2022-10-15T19:11:34.186Z,19.63
2022-10-15T19:14:02.726Z,19.63
2022-10-15T19:16:29.526Z,19.63
2022-10-15T19:19:02.374Z,19.63
2022-10-15T19:21:29.143Z,19.63
2022-10-15T19:23:55.896Z,19.65
2022-10-15T19:26:23.000Z,19.65
2022-10-15T19:28:51.879Z,19.65
2022-10-15T19:31:25.956Z,19.65
2022-10-15T19:33:53.895Z,19.66
2022-10-15T19:36:23.370Z,19.66
2022-10-15T19:38:50.244Z,19.67
2022-10-15T19:41:17.918Z,19.68
2022-10-15T19:43:44.950Z,19.66
2022-10-15T19:46:12.431Z,19.66
2022-10-15T19:48:41.433Z,19.67
2022-10-15T19:51:08.144Z,19.67
2022-10-15T19:53:35.147Z,19.68
2022-10-15T19:56:06.063Z,19.66
2022-10-15T19:58:33.953Z,19.68
2022-10-15T20:01:02.634Z,19.68
2022-10-15T20:03:30.667Z,19.68
2022-10-15T20:06:00.793Z,19.68
2022-10-15T20:08:27.619Z,19.68
2022-10-15T20:10:54.685Z,19.67
2022-10-15T20:13:22.857Z,19.68
2022-10-15T20:15:52.102Z,19.67
2022-10-15T20:18:20.469Z,19.68
2022-10-15T20:20:47.740Z,19.67
2022-10-15T20:23:16.267Z,19.66
2022-10-15T20:25:43.558Z,19.66
2022-10-15T20:28:11.557Z,19.65
2022-10-15T20:30:39.097Z,19.66
2022-10-15T20:33:06.860Z,19.66
2022-10-15T20:35:35.254Z,19.65
2022-10-15T20:38:02.679Z,19.65
2022-10-15T20:40:31.124Z,19.63
2022-10-15T20:42:57.935Z,19.65
2022-10-15T20:45:28.723Z,19.63
2022-10-15T20:47:59.096Z,19.63
2022-10-15T20:50:27.355Z,19.72
2022-10-15T20:52:56.664Z,19.66
2022-10-15T20:55:23.963Z,19.63
2022-10-15T20:57:51.664Z,19.62
2022-10-15T21:00:18.698Z,19.60
2022-10-15T21:02:45.615Z,19.59
2022-10-15T21:05:12.314Z,19.60
2022-10-15T21:07:39.206Z,19.59
2022-10-15T21:10:06.458Z,19.58
2022-10-15T21:12:33.479Z,19.59
2022-10-15T21:15:00.282Z,19.59
2022-10-15T21:17:27.777Z,19.59
2022-10-15T21:19:54.736Z,19.58
2022-10-15T21:22:21.559Z,19.58
2022-10-15T21:24:48.457Z,19.57
2022-10-15T21:27:15.467Z,19.57
2022-10-15T21:29:42.967Z,19.57
2022-10-15T21:32:09.725Z,19.56
2022-10-15T21:34:36.480Z,19.55
2022-10-15T21:37:03.365Z,19.56
2022-10-15T21:39:30.177Z,19.56
2022-10-15T21:41:56.990Z,19.56
2022-10-15T21:44:23.688Z,19.55
2022-10-15T21:46:50.418Z,19.55
2022-10-15T21:49:17.157Z,19.54
2022-10-15T21:51:44.187Z,19.54
2022-10-15T21:54:17.716Z,19.53
2022-10-15T21:56:44.952Z,19.53
2022-10-15T21:59:11.632Z,19.52
2022-10-15T22:01:39.602Z,19.51
2022-10-15T22:04:09.655Z,19.51
2022-10-15T22:06:39.922Z,19.50
2022-10-15T22:09:07.791Z,19.50
2022-10-15T22:11:36.804Z,19.49
2022-10-15T22:14:05.623Z,19.49
2022-10-15T22:16:35.116Z,19.47
2022-10-15T22:19:02.168Z,19.48
2022-10-15T22:21:31.120Z,19.48
2022-10-15T22:24:00.351Z,19.46
2022-10-15T22:26:29.352Z,19.47
2022-10-15T22:28:58.025Z,19.45
2022-10-15T22:31:25.277Z,19.46
2022-10-15T22:33:52.337Z,19.45
2022-10-15T22:36:24.593Z,19.44
2022-10-15T22:39:11.375Z,19.44
2022-10-15T22:41:40.499Z,19.44
2022-10-15T22:44:09.212Z,19.42
2022-10-15T22:46:38.308Z,19.41
2022-10-15T22:49:06.739Z,19.41
2022-10-15T22:51:33.996Z,19.40
2022-10-15T22:54:00.983Z,19.40
2022-10-15T22:56:28.862Z,19.37
2022-10-15T22:58:57.047Z,19.36
2022-10-15T23:01:26.349Z,19.36
2022-10-15T23:03:55.400Z,19.35
2022-10-15T23:06:23.073Z,19.34
2022-10-15T23:08:50.220Z,19.33
2022-10-15T23:11:19.705Z,19.32
2022-10-15T23:13:47.530Z,19.30
2022-10-15T23:16:16.659Z,19.30
2022-10-15T23:18:44.982Z,19.29
2022-10-15T23:21:20.946Z,19.28
2022-10-15T23:23:47.956Z,19.29
2022-10-15T23:26:16.279Z,19.28
2022-10-15T23:28:44.224Z,19.28
2022-10-15T23:31:18.438Z,19.27
2022-10-15T23:33:45.706Z,19.26
2022-10-15T23:36:12.547Z,19.26
2022-10-15T23:38:39.282Z,19.25
2022-10-15T23:41:07.947Z,19.23
2022-10-15T23:43:34.917Z,19.24
2022-10-15T23:46:01.849Z,19.23
2022-10-15T23:48:29.093Z,19.22
2022-10-15T23:51:00.709Z,19.22
2022-10-15T23:53:32.676Z,19.21
2022-10-15T23:56:01.487Z,19.20
2022-10-15T23:58:28.276Z,19.20
